sensor_id;sensor_type;location;lat;lon;timestamp;P1;durP1;ratioP1;P2;durP2;ratioP2
5787;SDS011;2920;48.158;12.254;2023-09-19T00:00:59;2.20;;;1.70;;
5787;SDS011;2920;48.158;12.254;2023-09-19T00:03:24;4.55;;;2.10;;
5787;SDS011;2920;48.158;12.254;2023-09-19T00:05:50;3.38;;;1.85;;
5787;SDS011;2920;48.158;12.254;2023-09-19T00:08:16;2.47;;;1.63;;
5787;SDS011;2920;48.158;12.254;2023-09-19T00:10:41;6.18;;;1.83;;
5787;SDS011;2920;48.158;12.254;2023-09-19T00:13:07;3.72;;;1.80;;
5787;SDS011;2920;48.158;12.254;2023-09-19T00:15:38;2.60;;;1.83;;
5787;SDS011;2920;48.158;12.254;2023-09-19T00:18:05;3.47;;;1.58;;
5787;SDS011;2920;48.158;12.254;2023-09-19T00:20:31;2.20;;;1.45;;
5787;SDS011;2920;48.158;12.254;2023-09-19T00:22:57;3.03;;;1.75;;
5787;SDS011;2920;48.158;12.254;2023-09-19T00:25:24;5.85;;;1.70;;
5787;SDS011;2920;48.158;12.254;2023-09-19T00:27:50;6.28;;;2.13;;
5787;SDS011;2920;48.158;12.254;2023-09-19T00:30:17;3.17;;;1.98;;
5787;SDS011;2920;48.158;12.254;2023-09-19T00:32:46;3.38;;;2.05;;
5787;SDS011;2920;48.158;12.254;2023-09-19T00:35:12;2.83;;;1.95;;
5787;SDS011;2920;48.158;12.254;2023-09-19T00:37:40;6.57;;;1.67;;
5787;SDS011;2920;48.158;12.254;2023-09-19T00:40:06;3.30;;;1.90;;
5787;SDS011;2920;48.158;12.254;2023-09-19T00:42:34;6.38;;;2.00;;
5787;SDS011;2920;48.158;12.254;2023-09-19T00:45:03;3.78;;;1.92;;
5787;SDS011;2920;48.158;12.254;2023-09-19T00:47:28;3.13;;;1.92;;
5787;SDS011;2920;48.158;12.254;2023-09-19T00:49:54;3.53;;;1.90;;
5787;SDS011;2920;48.158;12.254;2023-09-19T00:52:20;2.83;;;1.83;;
5787;SDS011;2920;48.158;12.254;2023-09-19T00:54:46;2.28;;;1.60;;
5787;SDS011;2920;48.158;12.254;2023-09-19T00:57:12;3.20;;;1.90;;
5787;SDS011;2920;48.158;12.254;2023-09-19T00:59:39;4.80;;;1.73;;
5787;SDS011;2920;48.158;12.254;2023-09-19T01:02:05;3.28;;;1.80;;
5787;SDS011;2920;48.158;12.254;2023-09-19T01:04:31;4.57;;;1.98;;
5787;SDS011;2920;48.158;12.254;2023-09-19T01:06:57;4.43;;;1.70;;
5787;SDS011;2920;48.158;12.254;2023-09-19T01:09:23;4.53;;;1.40;;
5787;SDS011;2920;48.158;12.254;2023-09-19T01:11:48;3.75;;;1.70;;
5787;SDS011;2920;48.158;12.254;2023-09-19T01:16:50;2.38;;;1.90;;
5787;SDS011;2920;48.158;12.254;2023-09-19T01:24:31;4.93;;;2.10;;
5787;SDS011;2920;48.158;12.254;2023-09-19T01:30:17;2.97;;;1.98;;
5787;SDS011;2920;48.158;12.254;2023-09-19T01:32:43;3.15;;;1.95;;
5787;SDS011;2920;48.158;12.254;2023-09-19T01:35:11;4.72;;;1.98;;
5787;SDS011;2920;48.158;12.254;2023-09-19T01:37:38;4.45;;;2.30;;
5787;SDS011;2920;48.158;12.254;2023-09-19T01:40:04;3.25;;;1.90;;
5787;SDS011;2920;48.158;12.254;2023-09-19T01:42:49;2.53;;;2.00;;
5787;SDS011;2920;48.158;12.254;2023-09-19T01:50:51;2.92;;;1.80;;
5787;SDS011;2920;48.158;12.254;2023-09-19T01:53:25;3.33;;;1.90;;
5787;SDS011;2920;48.158;12.254;2023-09-19T01:55:53;3.10;;;1.52;;
5787;SDS011;2920;48.158;12.254;2023-09-19T01:58:37;2.38;;;1.48;;
5787;SDS011;2920;48.158;12.254;2023-09-19T02:01:05;4.05;;;1.90;;
5787;SDS011;2920;48.158;12.254;2023-09-19T02:03:31;2.65;;;1.70;;
5787;SDS011;2920;48.158;12.254;2023-09-19T02:05:56;3.92;;;2.15;;
5787;SDS011;2920;48.158;12.254;2023-09-19T02:08:22;6.95;;;1.85;;
5787;SDS011;2920;48.158;12.254;2023-09-19T02:10:51;2.60;;;1.70;;
5787;SDS011;2920;48.158;12.254;2023-09-19T02:13:21;6.80;;;1.95;;
5787;SDS011;2920;48.158;12.254;2023-09-19T02:15:49;3.20;;;2.03;;
5787;SDS011;2920;48.158;12.254;2023-09-19T02:18:14;3.33;;;2.00;;
5787;SDS011;2920;48.158;12.254;2023-09-19T02:20:39;2.95;;;1.90;;
5787;SDS011;2920;48.158;12.254;2023-09-19T02:23:05;6.22;;;2.45;;
5787;SDS011;2920;48.158;12.254;2023-09-19T02:25:31;5.50;;;2.13;;
5787;SDS011;2920;48.158;12.254;2023-09-19T02:27:57;3.05;;;2.30;;
5787;SDS011;2920;48.158;12.254;2023-09-19T02:30:23;3.03;;;2.08;;
5787;SDS011;2920;48.158;12.254;2023-09-19T02:32:50;1.88;;;1.60;;
5787;SDS011;2920;48.158;12.254;2023-09-19T02:35:16;4.07;;;2.13;;
5787;SDS011;2920;48.158;12.254;2023-09-19T02:37:41;4.85;;;2.08;;
5787;SDS011;2920;48.158;12.254;2023-09-19T02:40:07;3.22;;;2.05;;
5787;SDS011;2920;48.158;12.254;2023-09-19T02:42:46;4.95;;;2.22;;
5787;SDS011;2920;48.158;12.254;2023-09-19T02:45:14;3.83;;;2.13;;
5787;SDS011;2920;48.158;12.254;2023-09-19T02:47:46;3.50;;;1.88;;
5787;SDS011;2920;48.158;12.254;2023-09-19T02:50:12;3.00;;;2.00;;
5787;SDS011;2920;48.158;12.254;2023-09-19T02:52:38;4.30;;;2.25;;
5787;SDS011;2920;48.158;12.254;2023-09-19T02:55:08;4.05;;;1.63;;
5787;SDS011;2920;48.158;12.254;2023-09-19T02:57:34;7.78;;;2.25;;
5787;SDS011;2920;48.158;12.254;2023-09-19T03:00:06;3.20;;;2.20;;
5787;SDS011;2920;48.158;12.254;2023-09-19T03:02:33;5.78;;;2.10;;
5787;SDS011;2920;48.158;12.254;2023-09-19T03:04:59;2.90;;;2.30;;
5787;SDS011;2920;48.158;12.254;2023-09-19T03:07:25;3.55;;;2.17;;
5787;SDS011;2920;48.158;12.254;2023-09-19T03:09:50;2.60;;;1.98;;
5787;SDS011;2920;48.158;12.254;2023-09-19T03:12:17;4.88;;;1.88;;
5787;SDS011;2920;48.158;12.254;2023-09-19T03:14:43;3.88;;;2.10;;
5787;SDS011;2920;48.158;12.254;2023-09-19T03:17:08;5.20;;;1.88;;
5787;SDS011;2920;48.158;12.254;2023-09-19T03:19:34;6.38;;;2.15;;
5787;SDS011;2920;48.158;12.254;2023-09-19T03:21:59;3.67;;;1.95;;
5787;SDS011;2920;48.158;12.254;2023-09-19T03:24:25;4.38;;;1.80;;
5787;SDS011;2920;48.158;12.254;2023-09-19T03:26:51;5.10;;;1.77;;
5787;SDS011;2920;48.158;12.254;2023-09-19T03:29:17;2.38;;;1.42;;
5787;SDS011;2920;48.158;12.254;2023-09-19T03:31:42;2.28;;;1.55;;
5787;SDS011;2920;48.158;12.254;2023-09-19T03:34:08;4.78;;;1.50;;
5787;SDS011;2920;48.158;12.254;2023-09-19T03:36:34;1.77;;;1.33;;
5787;SDS011;2920;48.158;12.254;2023-09-19T03:38:59;2.20;;;1.42;;
5787;SDS011;2920;48.158;12.254;2023-09-19T03:41:25;2.45;;;1.42;;
5787;SDS011;2920;48.158;12.254;2023-09-19T03:43:50;1.85;;;1.38;;
5787;SDS011;2920;48.158;12.254;2023-09-19T03:46:15;5.72;;;1.63;;
5787;SDS011;2920;48.158;12.254;2023-09-19T03:48:41;4.03;;;1.75;;
5787;SDS011;2920;48.158;12.254;2023-09-19T03:51:06;3.00;;;1.58;;
5787;SDS011;2920;48.158;12.254;2023-09-19T03:53:31;3.75;;;1.83;;
5787;SDS011;2920;48.158;12.254;2023-09-19T03:55:56;3.80;;;1.40;;
5787;SDS011;2920;48.158;12.254;2023-09-19T03:58:22;2.75;;;1.30;;
5787;SDS011;2920;48.158;12.254;2023-09-19T04:00:47;2.78;;;1.50;;
5787;SDS011;2920;48.158;12.254;2023-09-19T04:03:14;3.08;;;1.95;;
5787;SDS011;2920;48.158;12.254;2023-09-19T04:05:45;4.90;;;1.85;;
5787;SDS011;2920;48.158;12.254;2023-09-19T04:08:11;4.10;;;2.13;;
5787;SDS011;2920;48.158;12.254;2023-09-19T04:10:37;1.60;;;1.50;;
5787;SDS011;2920;48.158;12.254;2023-09-19T04:13:02;3.05;;;1.17;;
5787;SDS011;2920;48.158;12.254;2023-09-19T04:15:29;3.28;;;1.42;;
5787;SDS011;2920;48.158;12.254;2023-09-19T04:17:54;2.10;;;1.60;;
5787;SDS011;2920;48.158;12.254;2023-09-19T04:20:20;6.22;;;1.50;;
5787;SDS011;2920;48.158;12.254;2023-09-19T04:22:47;2.75;;;1.40;;
5787;SDS011;2920;48.158;12.254;2023-09-19T04:25:12;8.20;;;1.83;;
5787;SDS011;2920;48.158;12.254;2023-09-19T04:27:38;1.77;;;1.40;;
5787;SDS011;2920;48.158;12.254;2023-09-19T04:30:03;2.60;;;1.65;;
5787;SDS011;2920;48.158;12.254;2023-09-19T04:32:35;4.47;;;1.55;;
5787;SDS011;2920;48.158;12.254;2023-09-19T04:35:01;3.35;;;1.60;;
5787;SDS011;2920;48.158;12.254;2023-09-19T04:37:30;1.80;;;1.50;;
5787;SDS011;2920;48.158;12.254;2023-09-19T04:39:56;6.13;;;1.60;;
5787;SDS011;2920;48.158;12.254;2023-09-19T04:42:21;4.57;;;1.23;;
5787;SDS011;2920;48.158;12.254;2023-09-19T04:44:47;1.88;;;1.35;;
5787;SDS011;2920;48.158;12.254;2023-09-19T04:47:14;2.88;;;1.63;;
5787;SDS011;2920;48.158;12.254;2023-09-19T04:49:40;1.95;;;1.42;;
5787;SDS011;2920;48.158;12.254;2023-09-19T04:52:05;1.73;;;1.35;;
5787;SDS011;2920;48.158;12.254;2023-09-19T04:54:31;2.28;;;1.60;;
5787;SDS011;2920;48.158;12.254;2023-09-19T04:56:56;4.63;;;2.05;;
5787;SDS011;2920;48.158;12.254;2023-09-19T04:59:22;2.60;;;1.50;;
5787;SDS011;2920;48.158;12.254;2023-09-19T05:01:48;7.60;;;2.15;;
5787;SDS011;2920;48.158;12.254;2023-09-19T05:04:13;2.45;;;1.45;;
5787;SDS011;2920;48.158;12.254;2023-09-19T05:06:39;4.70;;;1.60;;
5787;SDS011;2920;48.158;12.254;2023-09-19T05:09:04;1.75;;;1.48;;
5787;SDS011;2920;48.158;12.254;2023-09-19T05:11:30;4.78;;;1.70;;
5787;SDS011;2920;48.158;12.254;2023-09-19T05:13:55;3.20;;;1.70;;
5787;SDS011;2920;48.158;12.254;2023-09-19T05:16:21;4.00;;;1.98;;
5787;SDS011;2920;48.158;12.254;2023-09-19T05:18:47;2.60;;;1.67;;
5787;SDS011;2920;48.158;12.254;2023-09-19T05:21:12;3.85;;;1.77;;
5787;SDS011;2920;48.158;12.254;2023-09-19T05:23:38;6.75;;;1.77;;
5787;SDS011;2920;48.158;12.254;2023-09-19T05:26:03;3.65;;;1.58;;
5787;SDS011;2920;48.158;12.254;2023-09-19T05:28:29;1.77;;;1.48;;
5787;SDS011;2920;48.158;12.254;2023-09-19T05:30:54;2.63;;;1.60;;
5787;SDS011;2920;48.158;12.254;2023-09-19T05:33:20;3.88;;;1.13;;
5787;SDS011;2920;48.158;12.254;2023-09-19T05:35:45;3.97;;;1.30;;
5787;SDS011;2920;48.158;12.254;2023-09-19T05:38:12;3.60;;;1.55;;
5787;SDS011;2920;48.158;12.254;2023-09-19T05:40:39;2.25;;;1.50;;
5787;SDS011;2920;48.158;12.254;2023-09-19T05:43:08;2.85;;;1.60;;
5787;SDS011;2920;48.158;12.254;2023-09-19T05:45:34;3.53;;;1.70;;
5787;SDS011;2920;48.158;12.254;2023-09-19T05:48:07;4.25;;;1.77;;
5787;SDS011;2920;48.158;12.254;2023-09-19T05:50:38;3.13;;;2.00;;
5787;SDS011;2920;48.158;12.254;2023-09-19T05:53:04;2.97;;;1.50;;
5787;SDS011;2920;48.158;12.254;2023-09-19T05:55:30;2.05;;;1.50;;
5787;SDS011;2920;48.158;12.254;2023-09-19T05:57:56;2.50;;;1.52;;
5787;SDS011;2920;48.158;12.254;2023-09-19T06:00:22;1.83;;;1.38;;
5787;SDS011;2920;48.158;12.254;2023-09-19T06:02:55;3.05;;;1.80;;
5787;SDS011;2920;48.158;12.254;2023-09-19T06:05:27;2.90;;;1.58;;
5787;SDS011;2920;48.158;12.254;2023-09-19T06:07:55;4.22;;;1.40;;
5787;SDS011;2920;48.158;12.254;2023-09-19T06:10:20;2.42;;;1.70;;
5787;SDS011;2920;48.158;12.254;2023-09-19T06:12:47;4.35;;;1.92;;
5787;SDS011;2920;48.158;12.254;2023-09-19T06:15:13;3.55;;;1.90;;
5787;SDS011;2920;48.158;12.254;2023-09-19T06:17:48;2.17;;;1.33;;
5787;SDS011;2920;48.158;12.254;2023-09-19T06:20:15;3.05;;;1.60;;
5787;SDS011;2920;48.158;12.254;2023-09-19T06:22:41;3.85;;;1.60;;
5787;SDS011;2920;48.158;12.254;2023-09-19T06:25:08;3.38;;;1.60;;
5787;SDS011;2920;48.158;12.254;2023-09-19T06:27:36;1.77;;;1.48;;
5787;SDS011;2920;48.158;12.254;2023-09-19T06:30:02;2.53;;;1.77;;
5787;SDS011;2920;48.158;12.254;2023-09-19T06:32:28;2.88;;;1.52;;
5787;SDS011;2920;48.158;12.254;2023-09-19T06:34:53;2.63;;;1.48;;
5787;SDS011;2920;48.158;12.254;2023-09-19T06:37:20;1.63;;;1.45;;
5787;SDS011;2920;48.158;12.254;2023-09-19T06:39:46;2.83;;;1.40;;
5787;SDS011;2920;48.158;12.254;2023-09-19T06:42:14;2.50;;;1.45;;
5787;SDS011;2920;48.158;12.254;2023-09-19T06:44:42;6.55;;;2.03;;
5787;SDS011;2920;48.158;12.254;2023-09-19T06:47:07;3.00;;;1.80;;
5787;SDS011;2920;48.158;12.254;2023-09-19T06:49:34;3.03;;;1.83;;
5787;SDS011;2920;48.158;12.254;2023-09-19T06:52:00;9.93;;;1.60;;
5787;SDS011;2920;48.158;12.254;2023-09-19T06:54:25;3.03;;;1.73;;
5787;SDS011;2920;48.158;12.254;2023-09-19T06:56:52;2.92;;;1.48;;
5787;SDS011;2920;48.158;12.254;2023-09-19T06:59:20;3.03;;;1.50;;
5787;SDS011;2920;48.158;12.254;2023-09-19T07:01:45;2.65;;;1.88;;
5787;SDS011;2920;48.158;12.254;2023-09-19T07:04:12;4.28;;;1.40;;
5787;SDS011;2920;48.158;12.254;2023-09-19T07:06:37;7.43;;;1.80;;
5787;SDS011;2920;48.158;12.254;2023-09-19T07:09:03;2.42;;;1.25;;
5787;SDS011;2920;48.158;12.254;2023-09-19T07:11:29;1.75;;;1.30;;
5787;SDS011;2920;48.158;12.254;2023-09-19T07:13:56;1.88;;;1.38;;
5787;SDS011;2920;48.158;12.254;2023-09-19T07:16:21;2.22;;;1.17;;
5787;SDS011;2920;48.158;12.254;2023-09-19T07:18:54;3.28;;;1.90;;
5787;SDS011;2920;48.158;12.254;2023-09-19T07:21:20;1.80;;;1.45;;
5787;SDS011;2920;48.158;12.254;2023-09-19T07:23:46;2.53;;;1.27;;
5787;SDS011;2920;48.158;12.254;2023-09-19T07:26:12;4.25;;;1.10;;
5787;SDS011;2920;48.158;12.254;2023-09-19T07:28:37;2.10;;;1.30;;
5787;SDS011;2920;48.158;12.254;2023-09-19T07:31:02;3.15;;;1.23;;
5787;SDS011;2920;48.158;12.254;2023-09-19T07:33:29;2.00;;;1.30;;
5787;SDS011;2920;48.158;12.254;2023-09-19T07:35:55;3.13;;;1.20;;
5787;SDS011;2920;48.158;12.254;2023-09-19T07:38:20;1.67;;;1.10;;
5787;SDS011;2920;48.158;12.254;2023-09-19T07:40:46;4.40;;;1.40;;
5787;SDS011;2920;48.158;12.254;2023-09-19T07:43:11;3.08;;;1.02;;
5787;SDS011;2920;48.158;12.254;2023-09-19T07:45:37;1.70;;;1.10;;
5787;SDS011;2920;48.158;12.254;2023-09-19T07:48:02;2.72;;;1.25;;
5787;SDS011;2920;48.158;12.254;2023-09-19T07:50:29;2.17;;;1.27;;
5787;SDS011;2920;48.158;12.254;2023-09-19T07:52:55;1.92;;;1.23;;
5787;SDS011;2920;48.158;12.254;2023-09-19T07:55:21;3.88;;;1.50;;
5787;SDS011;2920;48.158;12.254;2023-09-19T07:57:50;2.08;;;1.08;;
5787;SDS011;2920;48.158;12.254;2023-09-19T08:00:15;4.15;;;1.08;;
5787;SDS011;2920;48.158;12.254;2023-09-19T08:02:41;2.88;;;1.35;;
5787;SDS011;2920;48.158;12.254;2023-09-19T08:05:07;1.00;;;0.90;;
5787;SDS011;2920;48.158;12.254;2023-09-19T08:07:41;2.10;;;1.20;;
5787;SDS011;2920;48.158;12.254;2023-09-19T08:10:08;3.97;;;1.30;;
5787;SDS011;2920;48.158;12.254;2023-09-19T08:12:38;1.80;;;1.20;;
5787;SDS011;2920;48.158;12.254;2023-09-19T08:15:11;7.05;;;1.25;;
5787;SDS011;2920;48.158;12.254;2023-09-19T08:17:38;2.08;;;0.95;;
5787;SDS011;2920;48.158;12.254;2023-09-19T08:20:03;2.78;;;1.02;;
5787;SDS011;2920;48.158;12.254;2023-09-19T08:22:30;3.20;;;1.42;;
5787;SDS011;2920;48.158;12.254;2023-09-19T08:24:57;2.38;;;1.70;;
5787;SDS011;2920;48.158;12.254;2023-09-19T08:27:23;3.15;;;1.20;;
5787;SDS011;2920;48.158;12.254;2023-09-19T08:29:51;1.50;;;1.00;;
5787;SDS011;2920;48.158;12.254;2023-09-19T08:32:17;1.52;;;1.10;;
5787;SDS011;2920;48.158;12.254;2023-09-19T08:34:44;1.23;;;0.88;;
5787;SDS011;2920;48.158;12.254;2023-09-19T08:37:10;1.10;;;0.90;;
5787;SDS011;2920;48.158;12.254;2023-09-19T08:39:35;4.30;;;1.08;;
5787;SDS011;2920;48.158;12.254;2023-09-19T08:42:02;2.05;;;0.90;;
5787;SDS011;2920;48.158;12.254;2023-09-19T08:44:28;3.22;;;1.00;;
5787;SDS011;2920;48.158;12.254;2023-09-19T08:47:01;1.42;;;1.00;;
5787;SDS011;2920;48.158;12.254;2023-09-19T08:49:36;1.70;;;1.10;;
5787;SDS011;2920;48.158;12.254;2023-09-19T08:52:25;1.00;;;0.68;;
5787;SDS011;2920;48.158;12.254;2023-09-19T08:54:53;0.95;;;0.80;;
5787;SDS011;2920;48.158;12.254;2023-09-19T08:57:24;2.67;;;1.13;;
5787;SDS011;2920;48.158;12.254;2023-09-19T08:59:50;2.50;;;0.93;;
5787;SDS011;2920;48.158;12.254;2023-09-19T09:02:16;3.55;;;1.10;;
5787;SDS011;2920;48.158;12.254;2023-09-19T09:04:44;1.25;;;1.02;;
5787;SDS011;2920;48.158;12.254;2023-09-19T09:07:10;1.67;;;1.17;;
5787;SDS011;2920;48.158;12.254;2023-09-19T09:09:37;1.48;;;1.25;;
5787;SDS011;2920;48.158;12.254;2023-09-19T09:12:08;1.10;;;1.00;;
5787;SDS011;2920;48.158;12.254;2023-09-19T09:14:38;1.98;;;0.85;;
5787;SDS011;2920;48.158;12.254;2023-09-19T09:17:10;2.47;;;1.23;;
5787;SDS011;2920;48.158;12.254;2023-09-19T09:19:35;1.10;;;0.90;;
5787;SDS011;2920;48.158;12.254;2023-09-19T09:22:08;1.55;;;1.00;;
5787;SDS011;2920;48.158;12.254;2023-09-19T09:24:34;1.90;;;1.00;;
5787;SDS011;2920;48.158;12.254;2023-09-19T09:27:02;0.80;;;0.80;;
5787;SDS011;2920;48.158;12.254;2023-09-19T09:30:03;3.20;;;1.40;;
5787;SDS011;2920;48.158;12.254;2023-09-19T09:32:25;1.58;;;1.00;;
5787;SDS011;2920;48.158;12.254;2023-09-19T09:34:54;2.75;;;1.00;;
5787;SDS011;2920;48.158;12.254;2023-09-19T09:37:23;1.60;;;1.08;;
5787;SDS011;2920;48.158;12.254;2023-09-19T09:39:53;1.30;;;0.88;;
5787;SDS011;2920;48.158;12.254;2023-09-19T09:42:31;2.10;;;1.10;;
5787;SDS011;2920;48.158;12.254;2023-09-19T09:45:33;2.30;;;1.20;;
5787;SDS011;2920;48.158;12.254;2023-09-19T09:47:57;6.15;;;1.17;;
5787;SDS011;2920;48.158;12.254;2023-09-19T09:51:06;0.88;;;0.88;;
5787;SDS011;2920;48.158;12.254;2023-09-19T09:55:58;1.02;;;0.80;;
5787;SDS011;2920;48.158;12.254;2023-09-19T09:58:34;3.88;;;1.17;;
5787;SDS011;2920;48.158;12.254;2023-09-19T10:01:00;2.85;;;1.10;;
5787;SDS011;2920;48.158;12.254;2023-09-19T10:03:36;1.65;;;1.00;;
5787;SDS011;2920;48.158;12.254;2023-09-19T10:06:08;1.40;;;1.05;;
5787;SDS011;2920;48.158;12.254;2023-09-19T10:09:00;2.95;;;1.02;;
5787;SDS011;2920;48.158;12.254;2023-09-19T10:12:18;2.53;;;1.10;;
5787;SDS011;2920;48.158;12.254;2023-09-19T10:14:28;2.78;;;1.10;;
5787;SDS011;2920;48.158;12.254;2023-09-19T10:16:56;0.77;;;0.75;;
5787;SDS011;2920;48.158;12.254;2023-09-19T10:19:46;0.88;;;0.80;;
5787;SDS011;2920;48.158;12.254;2023-09-19T10:22:17;1.45;;;0.90;;
5787;SDS011;2920;48.158;12.254;2023-09-19T10:24:47;1.40;;;1.08;;
5787;SDS011;2920;48.158;12.254;2023-09-19T10:27:13;1.35;;;1.00;;
5787;SDS011;2920;48.158;12.254;2023-09-19T10:29:44;2.35;;;1.02;;
5787;SDS011;2920;48.158;12.254;2023-09-19T10:32:13;2.50;;;1.30;;
5787;SDS011;2920;48.158;12.254;2023-09-19T10:34:43;1.20;;;0.95;;
5787;SDS011;2920;48.158;12.254;2023-09-19T10:37:08;1.75;;;1.10;;
5787;SDS011;2920;48.158;12.254;2023-09-19T10:39:36;2.67;;;1.15;;
5787;SDS011;2920;48.158;12.254;2023-09-19T10:42:05;1.75;;;1.23;;
5787;SDS011;2920;48.158;12.254;2023-09-19T10:44:32;1.88;;;1.13;;
5787;SDS011;2920;48.158;12.254;2023-09-19T10:46:57;2.53;;;0.98;;
5787;SDS011;2920;48.158;12.254;2023-09-19T10:49:23;1.90;;;1.00;;
5787;SDS011;2920;48.158;12.254;2023-09-19T10:51:50;1.08;;;0.90;;
5787;SDS011;2920;48.158;12.254;2023-09-19T10:54:20;2.08;;;0.90;;
5787;SDS011;2920;48.158;12.254;2023-09-19T10:56:51;1.60;;;1.25;;
5787;SDS011;2920;48.158;12.254;2023-09-19T10:59:18;1.08;;;0.88;;
5787;SDS011;2920;48.158;12.254;2023-09-19T11:01:46;1.38;;;1.08;;
5787;SDS011;2920;48.158;12.254;2023-09-19T11:07:04;1.50;;;1.00;;
5787;SDS011;2920;48.158;12.254;2023-09-19T11:09:51;1.58;;;1.10;;
5787;SDS011;2920;48.158;12.254;2023-09-19T11:14:51;1.27;;;0.98;;
5787;SDS011;2920;48.158;12.254;2023-09-19T11:46:25;2.15;;;1.17;;
5787;SDS011;2920;48.158;12.254;2023-09-19T11:48:53;1.02;;;0.90;;
5787;SDS011;2920;48.158;12.254;2023-09-19T11:51:22;2.40;;;1.20;;
5787;SDS011;2920;48.158;12.254;2023-09-19T11:53:55;4.93;;;1.42;;
5787;SDS011;2920;48.158;12.254;2023-09-19T11:56:22;2.08;;;1.15;;
5787;SDS011;2920;48.158;12.254;2023-09-19T11:58:53;3.53;;;1.40;;
5787;SDS011;2920;48.158;12.254;2023-09-19T12:01:31;5.53;;;1.20;;
5787;SDS011;2920;48.158;12.254;2023-09-19T12:03:59;2.70;;;1.23;;
5787;SDS011;2920;48.158;12.254;2023-09-19T12:06:25;1.73;;;1.10;;
5787;SDS011;2920;48.158;12.254;2023-09-19T12:08:51;2.20;;;1.30;;
5787;SDS011;2920;48.158;12.254;2023-09-19T12:11:19;2.67;;;1.35;;
5787;SDS011;2920;48.158;12.254;2023-09-19T12:13:46;1.35;;;1.10;;
5787;SDS011;2920;48.158;12.254;2023-09-19T12:16:13;3.95;;;1.25;;
5787;SDS011;2920;48.158;12.254;2023-09-19T12:18:43;1.38;;;1.10;;
5787;SDS011;2920;48.158;12.254;2023-09-19T12:21:25;2.40;;;1.20;;
5787;SDS011;2920;48.158;12.254;2023-09-19T12:26:45;1.77;;;1.10;;
5787;SDS011;2920;48.158;12.254;2023-09-19T12:29:16;1.27;;;1.02;;
5787;SDS011;2920;48.158;12.254;2023-09-19T12:31:58;1.38;;;1.00;;
5787;SDS011;2920;48.158;12.254;2023-09-19T12:34:25;2.25;;;1.15;;
5787;SDS011;2920;48.158;12.254;2023-09-19T12:39:37;2.58;;;1.23;;
5787;SDS011;2920;48.158;12.254;2023-09-19T12:42:06;1.27;;;1.02;;
5787;SDS011;2920;48.158;12.254;2023-09-19T12:44:34;2.03;;;1.10;;
5787;SDS011;2920;48.158;12.254;2023-09-19T12:47:07;2.15;;;1.17;;
5787;SDS011;2920;48.158;12.254;2023-09-19T12:52:45;2.33;;;0.90;;
5787;SDS011;2920;48.158;12.254;2023-09-19T12:55:22;1.52;;;1.30;;
5787;SDS011;2920;48.158;12.254;2023-09-19T12:57:59;6.93;;;1.50;;
5787;SDS011;2920;48.158;12.254;2023-09-19T13:00:44;2.22;;;1.20;;
5787;SDS011;2920;48.158;12.254;2023-09-19T13:05:53;1.42;;;1.10;;
5787;SDS011;2920;48.158;12.254;2023-09-19T13:08:21;1.35;;;1.17;;
5787;SDS011;2920;48.158;12.254;2023-09-19T13:13:26;1.75;;;0.90;;
5787;SDS011;2920;48.158;12.254;2023-09-19T13:15:53;1.15;;;1.05;;
5787;SDS011;2920;48.158;12.254;2023-09-19T13:18:18;2.28;;;1.20;;
5787;SDS011;2920;48.158;12.254;2023-09-19T13:20:55;1.75;;;1.08;;
5787;SDS011;2920;48.158;12.254;2023-09-19T13:23:30;5.00;;;1.45;;
5787;SDS011;2920;48.158;12.254;2023-09-19T13:25:56;2.13;;;1.13;;
5787;SDS011;2920;48.158;12.254;2023-09-19T13:28:21;2.75;;;1.27;;
5787;SDS011;2920;48.158;12.254;2023-09-19T13:30:47;2.10;;;1.13;;
5787;SDS011;2920;48.158;12.254;2023-09-19T13:33:13;1.55;;;1.35;;
5787;SDS011;2920;48.158;12.254;2023-09-19T13:35:44;1.27;;;0.95;;
5787;SDS011;2920;48.158;12.254;2023-09-19T13:38:09;4.72;;;1.23;;
5787;SDS011;2920;48.158;12.254;2023-09-19T13:40:36;2.45;;;1.20;;
5787;SDS011;2920;48.158;12.254;2023-09-19T13:43:01;1.45;;;0.90;;
5787;SDS011;2920;48.158;12.254;2023-09-19T13:45:27;3.17;;;1.15;;
5787;SDS011;2920;48.158;12.254;2023-09-19T13:47:55;2.80;;;1.33;;
5787;SDS011;2920;48.158;12.254;2023-09-19T13:50:21;1.65;;;1.10;;
5787;SDS011;2920;48.158;12.254;2023-09-19T13:52:49;2.40;;;1.17;;
5787;SDS011;2920;48.158;12.254;2023-09-19T13:55:16;1.80;;;1.17;;
5787;SDS011;2920;48.158;12.254;2023-09-19T14:00:10;2.70;;;1.20;;
5787;SDS011;2920;48.158;12.254;2023-09-19T14:02:36;1.10;;;1.00;;
5787;SDS011;2920;48.158;12.254;2023-09-19T14:05:04;2.78;;;1.20;;
5787;SDS011;2920;48.158;12.254;2023-09-19T14:07:29;4.30;;;1.05;;
5787;SDS011;2920;48.158;12.254;2023-09-19T14:09:55;3.00;;;1.20;;
5787;SDS011;2920;48.158;12.254;2023-09-19T14:12:20;1.33;;;1.10;;
5787;SDS011;2920;48.158;12.254;2023-09-19T14:14:46;4.32;;;1.10;;
5787;SDS011;2920;48.158;12.254;2023-09-19T14:17:11;1.92;;;1.33;;
5787;SDS011;2920;48.158;12.254;2023-09-19T14:19:36;1.45;;;0.98;;
5787;SDS011;2920;48.158;12.254;2023-09-19T14:22:02;2.65;;;1.08;;
5787;SDS011;2920;48.158;12.254;2023-09-19T14:24:32;2.08;;;1.15;;
5787;SDS011;2920;48.158;12.254;2023-09-19T14:26:58;1.23;;;1.00;;
5787;SDS011;2920;48.158;12.254;2023-09-19T14:29:24;1.33;;;1.05;;
5787;SDS011;2920;48.158;12.254;2023-09-19T14:31:49;1.73;;;1.08;;
5787;SDS011;2920;48.158;12.254;2023-09-19T14:34:16;1.70;;;1.30;;
5787;SDS011;2920;48.158;12.254;2023-09-19T14:36:42;2.95;;;1.45;;
5787;SDS011;2920;48.158;12.254;2023-09-19T14:39:07;3.00;;;1.23;;
5787;SDS011;2920;48.158;12.254;2023-09-19T14:41:35;1.67;;;1.20;;
5787;SDS011;2920;48.158;12.254;2023-09-19T14:44:02;4.47;;;1.42;;
5787;SDS011;2920;48.158;12.254;2023-09-19T14:46:28;1.65;;;1.13;;
5787;SDS011;2920;48.158;12.254;2023-09-19T14:48:53;6.10;;;1.20;;
5787;SDS011;2920;48.158;12.254;2023-09-19T14:51:19;2.83;;;1.30;;
5787;SDS011;2920;48.158;12.254;2023-09-19T14:53:44;2.20;;;1.15;;
5787;SDS011;2920;48.158;12.254;2023-09-19T14:56:11;6.93;;;1.20;;
5787;SDS011;2920;48.158;12.254;2023-09-19T14:58:36;1.98;;;1.02;;
5787;SDS011;2920;48.158;12.254;2023-09-19T15:03:32;2.17;;;1.05;;
5787;SDS011;2920;48.158;12.254;2023-09-19T15:05:59;1.15;;;0.90;;
5787;SDS011;2920;48.158;12.254;2023-09-19T15:08:29;2.97;;;1.20;;
5787;SDS011;2920;48.158;12.254;2023-09-19T15:10:55;1.42;;;1.08;;
5787;SDS011;2920;48.158;12.254;2023-09-19T15:13:20;3.95;;;1.30;;
5787;SDS011;2920;48.158;12.254;2023-09-19T15:15:46;2.28;;;1.05;;
5787;SDS011;2920;48.158;12.254;2023-09-19T15:18:13;1.77;;;1.08;;
5787;SDS011;2920;48.158;12.254;2023-09-19T15:20:43;3.13;;;1.08;;
5787;SDS011;2920;48.158;12.254;2023-09-19T15:23:09;1.08;;;0.90;;
5787;SDS011;2920;48.158;12.254;2023-09-19T15:25:34;3.25;;;1.10;;
5787;SDS011;2920;48.158;12.254;2023-09-19T15:28:00;1.58;;;1.10;;
5787;SDS011;2920;48.158;12.254;2023-09-19T15:30:32;2.50;;;1.10;;
5787;SDS011;2920;48.158;12.254;2023-09-19T15:33:01;4.47;;;1.30;;
5787;SDS011;2920;48.158;12.254;2023-09-19T15:35:26;2.78;;;1.25;;
5787;SDS011;2920;48.158;12.254;2023-09-19T15:37:52;2.25;;;1.02;;
5787;SDS011;2920;48.158;12.254;2023-09-19T15:40:18;1.50;;;1.20;;
5787;SDS011;2920;48.158;12.254;2023-09-19T15:42:44;1.83;;;1.00;;
5787;SDS011;2920;48.158;12.254;2023-09-19T15:45:09;2.17;;;1.20;;
5787;SDS011;2920;48.158;12.254;2023-09-19T15:47:36;1.25;;;1.08;;
5787;SDS011;2920;48.158;12.254;2023-09-19T15:50:02;2.70;;;1.27;;
5787;SDS011;2920;48.158;12.254;2023-09-19T15:52:28;2.88;;;1.02;;
5787;SDS011;2920;48.158;12.254;2023-09-19T15:54:54;1.45;;;1.25;;
5787;SDS011;2920;48.158;12.254;2023-09-19T15:57:19;2.15;;;1.08;;
5787;SDS011;2920;48.158;12.254;2023-09-19T15:59:44;2.70;;;1.20;;
5787;SDS011;2920;48.158;12.254;2023-09-19T16:02:11;3.30;;;1.30;;
5787;SDS011;2920;48.158;12.254;2023-09-19T16:04:37;1.85;;;1.20;;
5787;SDS011;2920;48.158;12.254;2023-09-19T16:07:03;2.55;;;1.40;;
5787;SDS011;2920;48.158;12.254;2023-09-19T16:09:29;1.00;;;0.80;;
5787;SDS011;2920;48.158;12.254;2023-09-19T16:11:54;1.52;;;1.20;;
5787;SDS011;2920;48.158;12.254;2023-09-19T16:14:20;1.63;;;1.10;;
5787;SDS011;2920;48.158;12.254;2023-09-19T16:16:45;1.65;;;1.10;;